Time;durP1;ratioP1;P1;durP2;ratioP2;P2;SDS_P1;SDS_P2;PMS_P1;PMS_P2;Temp;Humidity;BMP_temperature;BMP_pressure;BME280_temperature;BME280_humidity;BME280_pressure;Samples;Min_cycle;Max_cycle;Signal;HPM_P1;HPM_P2
2023/07/26 00:01:26;;;;;;;;;;;26.20;62.70;;;;;;5096339;28;19978;-56
2023/07/26 00:03:58;;;;;;;;;;;26.20;62.70;;;;;;5095990;28;20376;-56
2023/07/26 00:06:25;;;;;;;;;;;26.20;62.70;;;;;;5096145;28;19930;-57
2023/07/26 00:08:52;;;;;;;;;;;26.20;62.70;;;;;;5095638;28;19924;-56
2023/07/26 00:11:19;;;;;;;;;;;26.20;62.70;;;;;;5096403;28;19924;-57
2023/07/26 00:13:47;;;;;;;;;;;26.20;62.70;;;;;;5095926;28;20023;-55
2023/07/26 00:16:14;;;;;;;;;;;26.20;62.70;;;;;;5096066;28;19967;-55
2023/07/26 00:18:41;;;;;;;;;;;26.20;62.70;;;;;;5096089;28;19935;-57
2023/07/26 00:21:08;;;;;;;;;;;26.20;62.70;;;;;;5094792;28;20346;-57
2023/07/26 00:23:35;;;;;;;;;;;26.20;62.70;;;;;;5095504;28;19950;-56
2023/07/26 00:26:02;;;;;;;;;;;26.20;62.70;;;;;;5095899;28;20415;-56
2023/07/26 00:28:29;;;;;;;;;;;26.20;62.70;;;;;;5095895;28;20019;-57
2023/07/26 00:30:56;;;;;;;;;;;26.10;62.60;;;;;;5095729;28;20380;-55
2023/07/26 00:33:23;;;;;;;;;;;26.20;62.70;;;;;;5095956;28;19982;-56
2023/07/26 00:35:50;;;;;;;;;;;26.20;62.70;;;;;;5094221;28;20350;-56
2023/07/26 00:38:18;;;;;;;;;;;26.20;62.70;;;;;;5095602;28;20027;-56
2023/07/26 00:40:45;;;;;;;;;;;26.20;62.70;;;;;;5095849;28;20006;-56
2023/07/26 00:43:12;;;;;;;;;;;26.20;62.70;;;;;;5095684;28;19925;-58
2023/07/26 00:45:40;;;;;;;;;;;26.10;62.60;;;;;;5095473;28;19970;-57
2023/07/26 00:48:07;;;;;;;;;;;26.10;62.50;;;;;;5095808;28;19977;-56
2023/07/26 00:50:35;;;;;;;;;;;26.10;62.50;;;;;;5095202;28;20384;-56
2023/07/26 00:53:02;;;;;;;;;;;26.20;62.60;;;;;;5095167;28;20007;-56
2023/07/26 00:55:30;;;;;;;;;;;26.20;62.50;;;;;;5095584;28;19967;-56
2023/07/26 00:57:57;;;;;;;;;;;26.20;62.60;;;;;;5095592;28;20027;-58
2023/07/26 01:00:25;;;;;;;;;;;26.20;62.50;;;;;;5094777;28;19974;-57
2023/07/26 01:02:52;;;;;;;;;;;26.20;62.50;;;;;;5094620;28;20042;-57
2023/07/26 01:05:19;;;;;;;;;;;26.20;62.50;;;;;;5095065;28;19928;-58
2023/07/26 01:08:02;;;;;;;;;;;26.20;62.40;;;;;;5094739;28;20058;-55
2023/07/26 01:10:32;;;;;;;;;;;26.20;62.40;;;;;;5094012;28;19928;-57
2023/07/26 01:13:07;;;;;;;;;;;26.20;62.40;;;;;;5094086;28;20443;-56
2023/07/26 01:15:35;;;;;;;;;;;26.20;62.40;;;;;;5094310;28;20024;-55
2023/07/26 01:18:09;;;;;;;;;;;26.20;62.40;;;;;;5094391;28;20338;-57
2023/07/26 01:20:36;;;;;;;;;;;26.20;62.40;;;;;;5094653;28;19983;-57
2023/07/26 01:23:03;;;;;;;;;;;26.20;62.40;;;;;;5093002;28;19924;-56
2023/07/26 01:25:30;;;;;;;;;;;26.20;62.40;;;;;;5094676;28;20011;-56
2023/07/26 01:27:57;;;;;;;;;;;26.20;62.40;;;;;;5094595;28;19924;-56
2023/07/26 01:30:27;;;;;;;;;;;26.20;62.40;;;;;;5094749;28;19924;-57
2023/07/26 01:32:54;;;;;;;;;;;26.10;62.40;;;;;;5093889;28;19975;-55
2023/07/26 01:35:24;;;;;;;;;;;26.10;62.30;;;;;;5094589;28;19924;-57
2023/07/26 01:37:53;;;;;;;;;;;26.10;62.30;;;;;;5094212;28;19931;-55
2023/07/26 01:40:21;;;;;;;;;;;26.10;62.30;;;;;;5094771;28;20007;-55
2023/07/26 01:42:48;;;;;;;;;;;26.10;62.40;;;;;;5094085;28;20035;-56
2023/07/26 01:45:16;;;;;;;;;;;26.10;62.30;;;;;;5094075;28;20015;-54
2023/07/26 01:47:43;;;;;;;;;;;26.10;62.30;;;;;;5094245;28;20375;-56
2023/07/26 01:50:10;;;;;;;;;;;26.10;62.30;;;;;;5092813;28;19978;-56
2023/07/26 01:52:36;;;;;;;;;;;26.10;62.30;;;;;;5094262;28;20019;-57
2023/07/26 01:55:04;;;;;;;;;;;26.10;62.30;;;;;;5094428;28;20390;-56
2023/07/26 01:57:31;;;;;;;;;;;26.10;62.30;;;;;;5094258;28;20010;-57
2023/07/26 01:59:59;;;;;;;;;;;26.10;62.30;;;;;;5093348;28;19967;-57
2023/07/26 02:02:26;;;;;;;;;;;26.10;62.30;;;;;;5094354;28;19924;-56
2023/07/26 02:04:53;;;;;;;;;;;26.10;62.30;;;;;;5094136;28;19924;-56
2023/07/26 02:07:20;;;;;;;;;;;26.10;62.30;;;;;;5093839;28;20003;-55
2023/07/26 02:09:47;;;;;;;;;;;26.10;62.30;;;;;;5093809;28;20408;-57
2023/07/26 02:12:14;;;;;;;;;;;26.10;62.30;;;;;;5093291;28;20006;-55
2023/07/26 02:14:41;;;;;;;;;;;26.10;62.30;;;;;;5093604;28;19924;-57
2023/07/26 02:17:08;;;;;;;;;;;26.10;62.30;;;;;;5093791;28;19994;-58
2023/07/26 02:19:35;;;;;;;;;;;26.10;62.30;;;;;;5093835;28;20385;-57
2023/07/26 02:22:02;;;;;;;;;;;26.10;62.30;;;;;;5093737;28;19993;-57
2023/07/26 02:24:29;;;;;;;;;;;26.10;62.30;;;;;;5093272;28;20440;-57
2023/07/26 02:26:56;;;;;;;;;;;26.10;62.20;;;;;;5093817;28;19924;-56
2023/07/26 02:29:23;;;;;;;;;;;26.10;62.20;;;;;;5092838;28;20368;-57
2023/07/26 02:31:50;;;;;;;;;;;26.10;62.20;;;;;;5093974;28;19963;-56
2023/07/26 02:34:17;;;;;;;;;;;26.10;62.20;;;;;;5093462;28;19977;-56
2023/07/26 02:36:44;;;;;;;;;;;26.10;62.20;;;;;;5093394;28;19978;-57
2023/07/26 02:39:11;;;;;;;;;;;26.10;62.10;;;;;;5093143;28;19975;-56
2023/07/26 02:41:38;;;;;;;;;;;26.10;62.10;;;;;;5092599;28;19978;-57
2023/07/26 02:44:05;;;;;;;;;;;26.10;62.00;;;;;;5093093;28;20396;-56
2023/07/26 02:46:33;;;;;;;;;;;26.10;62.00;;;;;;5093413;28;20337;-56
2023/07/26 02:48:59;;;;;;;;;;;26.10;62.00;;;;;;5093469;28;19950;-56
2023/07/26 02:51:26;;;;;;;;;;;26.20;62.10;;;;;;5093342;28;20273;-55
2023/07/26 02:53:53;;;;;;;;;;;26.10;62.00;;;;;;5093283;28;20014;-56
2023/07/26 02:56:20;;;;;;;;;;;26.10;62.00;;;;;;5093374;28;20380;-56
2023/07/26 02:58:48;;;;;;;;;;;26.10;61.90;;;;;;5093599;28;19924;-56
2023/07/26 03:01:15;;;;;;;;;;;26.10;61.90;;;;;;5093026;28;20380;-58
2023/07/26 03:03:42;;;;;;;;;;;26.20;62.00;;;;;;5093362;28;19924;-57
2023/07/26 03:06:09;;;;;;;;;;;26.10;61.90;;;;;;5092797;28;19928;-55
2023/07/26 03:08:36;;;;;;;;;;;26.10;61.80;;;;;;5093517;28;20368;-56
2023/07/26 03:11:04;;;;;;;;;;;26.10;61.80;;;;;;5092298;28;19924;-57
2023/07/26 03:13:31;;;;;;;;;;;26.10;61.80;;;;;;5093082;28;19924;-56
2023/07/26 03:15:58;;;;;;;;;;;26.10;61.90;;;;;;5093261;28;19928;-57
2023/07/26 03:18:25;;;;;;;;;;;26.10;61.90;;;;;;5093293;28;19977;-57
2023/07/26 03:20:54;;;;;;;;;;;26.10;61.90;;;;;;5092034;28;21367;-56
2023/07/26 03:23:21;;;;;;;;;;;26.10;61.90;;;;;;5092645;28;19955;-56
2023/07/26 03:25:48;;;;;;;;;;;26.10;61.90;;;;;;5096454;28;20011;-55
2023/07/26 03:28:15;;;;;;;;;;;26.10;61.90;;;;;;5096663;28;20330;-56
2023/07/26 03:30:42;;;;;;;;;;;26.10;61.90;;;;;;5097124;28;20279;-57
2023/07/26 03:33:09;;;;;;;;;;;26.10;61.90;;;;;;5094574;28;19932;-57
2023/07/26 03:35:37;;;;;;;;;;;26.10;61.90;;;;;;5093594;28;19985;-57
2023/07/26 03:38:04;;;;;;;;;;;26.10;61.90;;;;;;5091751;28;19963;-56
2023/07/26 03:40:31;;;;;;;;;;;26.10;61.90;;;;;;5084436;28;20011;-57
2023/07/26 03:42:57;;;;;;;;;;;26.10;61.90;;;;;;5082124;28;19931;-56
2023/07/26 03:45:26;;;;;;;;;;;26.10;61.90;;;;;;5086406;28;19931;-56
2023/07/26 03:47:57;;;;;;;;;;;26.10;61.90;;;;;;5083295;28;20396;-57
2023/07/26 03:50:24;;;;;;;;;;;26.10;61.90;;;;;;5084217;28;19931;-58
2023/07/26 03:52:51;;;;;;;;;;;26.10;61.80;;;;;;5087166;28;20050;-55
2023/07/26 03:55:18;;;;;;;;;;;26.10;61.80;;;;;;5085757;28;19997;-57
2023/07/26 03:57:45;;;;;;;;;;;26.10;61.80;;;;;;5084665;28;19978;-56
2023/07/26 04:00:13;;;;;;;;;;;26.10;61.70;;;;;;5078245;28;19928;-56
2023/07/26 04:02:40;;;;;;;;;;;26.10;61.70;;;;;;5084127;28;19967;-56
2023/07/26 04:05:08;;;;;;;;;;;26.10;61.70;;;;;;5085485;28;19928;-57
2023/07/26 04:07:36;;;;;;;;;;;26.10;61.70;;;;;;5092649;28;19925;-56
2023/07/26 04:10:03;;;;;;;;;;;26.10;61.70;;;;;;5078850;28;19954;-57
2023/07/26 04:12:31;;;;;;;;;;;26.10;61.70;;;;;;5085138;28;20054;-58
2023/07/26 04:14:58;;;;;;;;;;;26.10;61.70;;;;;;5080352;28;20011;-57
2023/07/26 04:17:25;;;;;;;;;;;26.10;61.60;;;;;;5078636;28;20014;-56
2023/07/26 04:19:52;;;;;;;;;;;26.10;61.60;;;;;;5095938;28;19924;-57
2023/07/26 04:22:19;;;;;;;;;;;26.10;61.50;;;;;;5096068;28;20467;-56
2023/07/26 04:24:47;;;;;;;;;;;26.10;61.50;;;;;;5095134;28;19953;-56
2023/07/26 04:27:14;;;;;;;;;;;26.10;61.50;;;;;;5091577;28;20319;-56
2023/07/26 04:29:42;;;;;;;;;;;26.10;61.40;;;;;;5083792;28;20050;-57
2023/07/26 04:32:09;;;;;;;;;;;26.10;61.40;;;;;;5083334;28;20419;-56
2023/07/26 04:34:36;;;;;;;;;;;26.10;61.30;;;;;;5082386;28;19976;-55
2023/07/26 04:37:03;;;;;;;;;;;26.10;61.40;;;;;;5083966;28;19924;-56
2023/07/26 04:39:30;;;;;;;;;;;26.10;61.80;;;;;;5085045;28;19924;-59
2023/07/26 04:41:57;;;;;;;;;;;26.00;61.70;;;;;;5086670;28;20381;-57
2023/07/26 04:44:24;;;;;;;;;;;25.90;61.60;;;;;;5091840;28;19999;-56
2023/07/26 04:46:51;;;;;;;;;;;25.80;60.70;;;;;;5092040;28;20022;-57
2023/07/26 04:49:19;;;;;;;;;;;25.60;59.60;;;;;;5076083;28;19924;-56
2023/07/26 04:51:46;;;;;;;;;;;25.40;58.60;;;;;;5075222;28;19968;-56
2023/07/26 04:54:13;;;;;;;;;;;25.20;57.60;;;;;;5094775;28;19930;-57
2023/07/26 04:56:40;;;;;;;;;;;24.90;57.00;;;;;;5092921;28;20357;-56
2023/07/26 04:59:07;;;;;;;;;;;24.60;56.20;;;;;;5092503;28;19924;-57
2023/07/26 05:01:35;;;;;;;;;;;24.30;56.10;;;;;;5094799;28;19986;-58
2023/07/26 05:04:02;;;;;;;;;;;24.00;55.90;;;;;;5081676;28;19967;-56
2023/07/26 05:06:30;;;;;;;;;;;23.80;55.50;;;;;;5077031;28;19932;-55
2023/07/26 05:08:59;;;;;;;;;;;23.50;55.80;;;;;;5091634;28;19955;-59
2023/07/26 05:11:26;;;;;;;;;;;23.20;55.70;;;;;;5084881;28;19924;-64
2023/07/26 05:13:54;;;;;;;;;;;22.90;55.80;;;;;;5084021;28;19924;-63
2023/07/26 05:16:21;;;;;;;;;;;22.60;56.70;;;;;;5088403;28;19928;-63
2023/07/26 05:18:48;;;;;;;;;;;22.30;56.40;;;;;;5080426;28;19978;-63
2023/07/26 05:21:15;;;;;;;;;;;22.00;56.90;;;;;;5088860;28;19983;-63
2023/07/26 05:23:42;;;;;;;;;;;21.70;57.10;;;;;;5082570;28;19927;-64
2023/07/26 05:26:09;;;;;;;;;;;21.40;57.30;;;;;;5080257;28;19931;-63
2023/07/26 05:28:37;;;;;;;;;;;21.20;59.30;;;;;;5071773;28;19932;-63
2023/07/26 05:31:04;;;;;;;;;;;21.00;59.40;;;;;;5073522;28;20293;-64
2023/07/26 05:33:30;;;;;;;;;;;20.80;59.90;;;;;;5074252;28;19931;-63
2023/07/26 05:35:57;;;;;;;;;;;20.70;60.10;;;;;;5074143;28;19932;-63
2023/07/26 05:38:25;;;;;;;;;;;20.60;59.80;;;;;;5070174;28;19929;-62
2023/07/26 05:40:52;;;;;;;;;;;20.40;60.10;;;;;;5069038;28;19977;-63
2023/07/26 05:43:19;;;;;;;;;;;20.30;61.60;;;;;;5074152;28;20365;-63
2023/07/26 05:45:46;;;;;;;;;;;20.20;61.20;;;;;;5077724;28;20679;-64
2023/07/26 05:48:14;;;;;;;;;;;20.10;60.30;;;;;;5073257;28;19933;-63
2023/07/26 05:50:41;;;;;;;;;;;20.00;61.00;;;;;;5078563;28;19932;-63
2023/07/26 05:53:08;;;;;;;;;;;19.90;59.70;;;;;;5074526;28;19971;-63
2023/07/26 05:55:35;;;;;;;;;;;19.70;60.70;;;;;;5078115;28;20331;-63
2023/07/26 05:58:02;;;;;;;;;;;19.50;60.40;;;;;;5073913;28;20428;-63
2023/07/26 06:00:29;;;;;;;;;;;19.30;61.70;;;;;;5078630;28;19932;-63
2023/07/26 06:02:56;;;;;;;;;;;19.10;62.30;;;;;;5065754;28;19932;-63
2023/07/26 06:05:24;;;;;;;;;;;19.10;61.70;;;;;;5075048;28;20826;-63
2023/07/26 06:07:51;;;;;;;;;;;19.00;62.30;;;;;;5076912;28;19928;-63
2023/07/26 06:10:18;;;;;;;;;;;18.90;63.00;;;;;;5074685;28;20027;-63
2023/07/26 06:12:45;;;;;;;;;;;18.90;62.80;;;;;;5067442;28;21338;-63
2023/07/26 06:15:12;;;;;;;;;;;18.80;63.00;;;;;;5071157;28;19958;-63
2023/07/26 06:17:39;;;;;;;;;;;18.70;62.60;;;;;;5075216;28;19967;-67
2023/07/26 06:20:07;;;;;;;;;;;18.70;61.60;;;;;;5072575;28;20026;-63
2023/07/26 06:22:34;;;;;;;;;;;18.60;62.10;;;;;;5070733;28;19928;-63
2023/07/26 06:25:01;;;;;;;;;;;18.60;63.50;;;;;;5073175;28;19928;-63
2023/07/26 06:27:29;;;;;;;;;;;18.50;63.50;;;;;;5078770;28;19928;-63
2023/07/26 06:29:56;;;;;;;;;;;18.50;63.90;;;;;;5073013;28;20010;-60
2023/07/26 06:32:23;;;;;;;;;;;18.40;62.90;;;;;;5076412;28;19932;-60
2023/07/26 06:34:50;;;;;;;;;;;18.40;61.80;;;;;;5077397;28;19939;-60
2023/07/26 06:37:17;;;;;;;;;;;18.50;61.80;;;;;;5076866;28;19935;-60
2023/07/26 06:39:45;;;;;;;;;;;18.50;61.30;;;;;;5076381;28;19967;-60
2023/07/26 06:42:12;;;;;;;;;;;18.60;61.90;;;;;;5074136;28;19932;-60
2023/07/26 06:44:39;;;;;;;;;;;18.70;60.70;;;;;;5074813;28;19932;-60
2023/07/26 06:47:07;;;;;;;;;;;18.70;59.70;;;;;;5074980;28;19980;-61
2023/07/26 06:49:35;;;;;;;;;;;18.80;59.30;;;;;;5072526;28;19928;-59
2023/07/26 06:52:03;;;;;;;;;;;18.80;60.00;;;;;;5072946;28;19967;-57
2023/07/26 06:54:30;;;;;;;;;;;18.80;59.30;;;;;;5069926;28;19932;-60
2023/07/26 06:56:57;;;;;;;;;;;18.80;59.80;;;;;;5071458;28;20027;-58
2023/07/26 06:59:24;;;;;;;;;;;18.90;59.20;;;;;;5072803;28;19972;-60
2023/07/26 07:01:51;;;;;;;;;;;18.90;59.40;;;;;;5072560;28;20369;-58
2023/07/26 07:04:19;;;;;;;;;;;18.90;59.50;;;;;;5081044;28;19930;-61
2023/07/26 07:06:46;;;;;;;;;;;18.90;59.60;;;;;;5076647;28;19932;-59
2023/07/26 07:09:13;;;;;;;;;;;19.00;59.60;;;;;;5082244;28;20430;-60
2023/07/26 07:11:40;;;;;;;;;;;19.00;59.00;;;;;;5079112;28;19939;-59
2023/07/26 07:14:07;;;;;;;;;;;19.00;58.40;;;;;;5075607;28;19925;-61
2023/07/26 07:16:37;;;;;;;;;;;19.00;59.10;;;;;;5076963;28;20303;-61
2023/07/26 07:19:04;;;;;;;;;;;19.00;58.80;;;;;;5080226;28;19932;-62
2023/07/26 07:21:31;;;;;;;;;;;19.00;58.10;;;;;;5080781;28;20434;-60
2023/07/26 07:23:59;;;;;;;;;;;19.00;59.20;;;;;;5081120;28;19931;-60
2023/07/26 07:26:26;;;;;;;;;;;18.90;59.70;;;;;;5075998;28;20001;-60
2023/07/26 07:28:53;;;;;;;;;;;18.90;59.30;;;;;;5077566;28;19931;-62
2023/07/26 07:31:20;;;;;;;;;;;18.90;58.80;;;;;;5074285;28;19956;-63
2023/07/26 07:33:48;;;;;;;;;;;18.90;59.60;;;;;;5077858;28;20453;-62
2023/07/26 07:36:18;;;;;;;;;;;18.90;58.80;;;;;;5070941;28;19932;-60
2023/07/26 07:38:45;;;;;;;;;;;18.90;58.30;;;;;;5075053;28;19929;-64
2023/07/26 07:41:14;;;;;;;;;;;18.90;59.30;;;;;;5081135;28;19933;-60
2023/07/26 07:43:41;;;;;;;;;;;18.90;60.00;;;;;;5078062;28;20032;-61
2023/07/26 07:46:08;;;;;;;;;;;18.90;58.60;;;;;;5074378;28;19932;-62
2023/07/26 07:48:36;;;;;;;;;;;18.90;57.90;;;;;;5071947;28;19924;-60
2023/07/26 07:51:03;;;;;;;;;;;18.90;58.60;;;;;;5074483;28;20019;-63
2023/07/26 07:53:30;;;;;;;;;;;19.00;58.40;;;;;;5076091;28;19959;-60
2023/07/26 07:55:57;;;;;;;;;;;19.00;57.80;;;;;;5074699;28;20023;-61
2023/07/26 07:58:26;;;;;;;;;;;19.00;58.90;;;;;;5074187;28;19930;-60
2023/07/26 08:00:58;;;;;;;;;;;19.00;58.90;;;;;;5078324;28;20291;-62
2023/07/26 08:03:25;;;;;;;;;;;19.10;58.40;;;;;;5072430;28;19940;-61
2023/07/26 08:05:54;;;;;;;;;;;19.10;58.40;;;;;;5079483;28;19932;-65
2023/07/26 08:08:21;;;;;;;;;;;19.00;59.10;;;;;;5077773;28;19979;-60
2023/07/26 08:10:48;;;;;;;;;;;19.10;58.80;;;;;;5076763;28;19928;-65
2023/07/26 08:13:15;;;;;;;;;;;19.10;58.30;;;;;;5075766;28;20008;-60
2023/07/26 08:15:43;;;;;;;;;;;19.10;58.80;;;;;;5071651;28;20019;-62
2023/07/26 08:18:10;;;;;;;;;;;19.10;58.50;;;;;;5075577;28;19934;-61
2023/07/26 08:20:37;;;;;;;;;;;19.10;57.80;;;;;;5076484;28;19936;-60
2023/07/26 08:23:04;;;;;;;;;;;19.10;58.40;;;;;;5078492;28;19954;-63
2023/07/26 08:25:32;;;;;;;;;;;19.10;58.10;;;;;;5070582;28;20018;-62
2023/07/26 08:27:59;;;;;;;;;;;19.10;58.40;;;;;;5074070;28;19970;-60
2023/07/26 08:30:26;;;;;;;;;;;19.10;58.70;;;;;;5074853;28;19935;-59
2023/07/26 08:32:53;;;;;;;;;;;19.10;59.30;;;;;;5072373;28;20376;-60
2023/07/26 08:35:23;;;;;;;;;;;19.10;58.10;;;;;;5079433;28;20426;-60
2023/07/26 08:37:51;;;;;;;;;;;19.20;58.10;;;;;;5077361;28;19932;-61
2023/07/26 08:40:18;;;;;;;;;;;19.20;58.90;;;;;;5078778;28;19933;-60
2023/07/26 08:42:45;;;;;;;;;;;19.20;59.00;;;;;;5076550;28;20428;-60
2023/07/26 08:45:13;;;;;;;;;;;19.20;57.80;;;;;;5074455;28;19939;-60
2023/07/26 08:47:40;;;;;;;;;;;19.10;59.00;;;;;;5069677;28;20021;-61
2023/07/26 08:50:07;;;;;;;;;;;19.20;59.60;;;;;;5075531;28;19925;-60
2023/07/26 08:52:37;;;;;;;;;;;19.20;59.50;;;;;;5079586;28;19933;-60
2023/07/26 08:55:04;;;;;;;;;;;19.20;59.70;;;;;;5072693;28;19936;-60
2023/07/26 08:57:31;;;;;;;;;;;19.20;58.60;;;;;;5073651;28;19970;-59
2023/07/26 08:59:58;;;;;;;;;;;19.10;58.50;;;;;;5073575;28;20009;-61
2023/07/26 09:02:26;;;;;;;;;;;19.10;59.80;;;;;;5071359;28;19976;-61
2023/07/26 09:04:54;;;;;;;;;;;19.10;59.60;;;;;;5073603;28;19936;-58
2023/07/26 09:07:21;;;;;;;;;;;19.10;59.00;;;;;;5072037;28;19928;-61
2023/07/26 09:09:48;;;;;;;;;;;19.10;59.70;;;;;;5080097;28;19924;-60
2023/07/26 09:12:23;;;;;;;;;;;19.10;60.40;;;;;;5079703;28;20019;-59
2023/07/26 09:14:52;;;;;;;;;;;19.10;59.40;;;;;;5070327;28;20294;-59
2023/07/26 09:17:18;;;;;;;;;;;19.20;58.50;;;;;;5073300;28;19944;-59
2023/07/26 09:19:45;;;;;;;;;;;19.20;59.40;;;;;;5076667;28;19924;-60
2023/07/26 09:22:12;;;;;;;;;;;19.20;59.70;;;;;;5072055;28;19982;-57
2023/07/26 09:24:40;;;;;;;;;;;19.20;58.70;;;;;;5071527;28;19946;-60
2023/07/26 09:27:10;;;;;;;;;;;19.20;59.20;;;;;;5077323;28;20381;-60
2023/07/26 09:29:39;;;;;;;;;;;19.30;60.10;;;;;;5070590;28;19997;-59
2023/07/26 09:32:07;;;;;;;;;;;19.30;59.00;;;;;;5074460;28;19935;-59
2023/07/26 09:34:34;;;;;;;;;;;19.30;59.30;;;;;;5072659;28;19935;-60
2023/07/26 09:37:02;;;;;;;;;;;19.30;59.10;;;;;;5067790;28;19932;-62
2023/07/26 09:39:32;;;;;;;;;;;19.40;58.50;;;;;;5073716;28;20027;-59
2023/07/26 09:42:05;;;;;;;;;;;19.40;58.00;;;;;;5078393;28;20084;-60
2023/07/26 09:44:33;;;;;;;;;;;19.40;57.50;;;;;;5078025;28;20380;-57
2023/07/26 09:47:00;;;;;;;;;;;19.40;57.80;;;;;;5070582;28;19974;-57
2023/07/26 09:49:27;;;;;;;;;;;19.50;58.30;;;;;;5076680;28;20300;-60
2023/07/26 09:51:57;;;;;;;;;;;19.50;58.40;;;;;;5072832;28;19932;-63
2023/07/26 09:54:31;;;;;;;;;;;19.50;58.20;;;;;;5076132;28;19967;-60
2023/07/26 09:57:00;;;;;;;;;;;19.60;58.20;;;;;;5075355;28;19932;-57
2023/07/26 09:59:28;;;;;;;;;;;19.60;57.60;;;;;;5073853;28;19928;-61
2023/07/26 10:01:57;;;;;;;;;;;19.60;57.00;;;;;;5073037;28;19932;-63
2023/07/26 10:04:27;;;;;;;;;;;19.60;57.70;;;;;;5074674;28;20306;-62
2023/07/26 10:06:55;;;;;;;;;;;19.70;57.50;;;;;;5074648;28;19928;-63
2023/07/26 10:09:24;;;;;;;;;;;19.70;57.30;;;;;;5078953;28;19924;-63
2023/07/26 10:11:52;;;;;;;;;;;19.70;57.00;;;;;;5072024;28;19971;-63
2023/07/26 10:14:19;;;;;;;;;;;19.80;57.10;;;;;;5078215;28;20018;-63
2023/07/26 10:16:47;;;;;;;;;;;19.80;56.90;;;;;;5077560;28;20010;-61
2023/07/26 10:19:14;;;;;;;;;;;19.80;56.20;;;;;;5087139;28;19943;-62
2023/07/26 10:21:42;;;;;;;;;;;19.80;56.40;;;;;;5081662;28;21491;-64
2023/07/26 10:24:09;;;;;;;;;;;19.80;56.70;;;;;;5078384;28;19924;-63
2023/07/26 10:26:37;;;;;;;;;;;19.80;56.00;;;;;;5074414;28;20720;-63
2023/07/26 10:29:04;;;;;;;;;;;19.80;57.00;;;;;;5076217;28;19971;-63
2023/07/26 10:31:32;;;;;;;;;;;19.90;56.60;;;;;;5069134;28;20385;-63
2023/07/26 10:34:00;;;;;;;;;;;19.90;56.90;;;;;;5072865;28;19939;-63
2023/07/26 10:36:28;;;;;;;;;;;19.80;56.40;;;;;;5071701;28;20024;-61
2023/07/26 10:38:56;;;;;;;;;;;19.90;56.60;;;;;;5079060;28;19928;-60
2023/07/26 10:41:27;;;;;;;;;;;19.90;55.70;;;;;;5077306;28;19925;-61
2023/07/26 10:44:05;;;;;;;;;;;19.90;56.00;;;;;;5078226;28;19936;-60
2023/07/26 10:46:49;;;;;;;;;;;20.00;56.10;;;;;;5077705;28;19971;-59
2023/07/26 10:49:20;;;;;;;;;;;20.00;56.00;;;;;;5079918;28;19927;-61
2023/07/26 10:51:51;;;;;;;;;;;20.00;55.20;;;;;;5074105;28;19967;-60
2023/07/26 10:54:34;;;;;;;;;;;20.10;55.00;;;;;;5073302;28;19960;-59
2023/07/26 10:57:21;;;;;;;;;;;20.10;55.90;;;;;;5074544;28;19932;-64
2023/07/26 10:59:50;;;;;;;;;;;20.10;56.00;;;;;;5079068;28;19928;-64
2023/07/26 11:02:36;;;;;;;;;;;20.00;56.20;;;;;;5068726;28;20024;-61
2023/07/26 11:05:06;;;;;;;;;;;19.90;55.90;;;;;;5072955;28;19967;-61
2023/07/26 11:07:51;;;;;;;;;;;19.90;55.50;;;;;;5072066;28;19942;-63
2023/07/26 11:10:21;;;;;;;;;;;19.90;56.00;;;;;;5074360;28;20018;-61
2023/07/26 11:12:49;;;;;;;;;;;20.00;56.30;;;;;;5070784;28;19928;-61
2023/07/26 11:15:27;;;;;;;;;;;20.10;55.80;;;;;;5072474;28;20039;-61
2023/07/26 11:18:15;;;;;;;;;;;20.10;56.70;;;;;;5073111;28;19932;-60
2023/07/26 11:20:44;;;;;;;;;;;20.10;57.20;;;;;;5077205;28;19928;-61
2023/07/26 11:23:22;;;;;;;;;;;20.20;56.30;;;;;;5068573;28;19975;-61
2023/07/26 11:25:58;;;;;;;;;;;20.20;56.50;;;;;;5074168;28;19981;-60
2023/07/26 11:28:29;;;;;;;;;;;20.30;56.30;;;;;;5072306;28;19928;-61
2023/07/26 11:30:58;;;;;;;;;;;20.30;56.40;;;;;;5069975;28;19931;-60
2023/07/26 11:33:29;;;;;;;;;;;20.30;56.10;;;;;;5070844;28;19932;-62
2023/07/26 11:35:58;;;;;;;;;;;20.40;56.60;;;;;;5072671;28;19934;-61
2023/07/26 11:38:25;;;;;;;;;;;20.40;55.90;;;;;;5074468;28;19932;-61
2023/07/26 11:40:58;;;;;;;;;;;20.50;56.40;;;;;;5074080;28;19929;-61
2023/07/26 11:43:26;;;;;;;;;;;20.40;56.10;;;;;;5073769;28;19924;-61
2023/07/26 11:45:54;;;;;;;;;;;20.40;55.90;;;;;;5072288;28;20013;-58
2023/07/26 11:48:21;;;;;;;;;;;20.40;55.60;;;;;;5076058;28;19956;-60
2023/07/26 11:50:53;;;;;;;;;;;20.40;55.90;;;;;;5077339;28;20336;-64
2023/07/26 11:53:26;;;;;;;;;;;20.40;56.70;;;;;;5076622;28;19931;-57
2023/07/26 11:56:10;;;;;;;;;;;20.40;54.90;;;;;;5075800;28;20329;-61
2023/07/26 11:58:37;;;;;;;;;;;20.40;55.40;;;;;;5084817;28;20015;-60
2023/07/26 12:01:05;;;;;;;;;;;20.30;55.00;;;;;;5077111;28;20005;-60
2023/07/26 12:03:32;;;;;;;;;;;20.30;55.70;;;;;;5078087;28;19981;-59
2023/07/26 12:06:00;;;;;;;;;;;20.30;55.60;;;;;;5078216;28;19954;-61
2023/07/26 12:08:34;;;;;;;;;;;20.30;55.80;;;;;;5081645;28;19932;-59
2023/07/26 12:11:02;;;;;;;;;;;20.30;56.00;;;;;;5080081;28;19967;-60
2023/07/26 12:13:32;;;;;;;;;;;20.30;56.20;;;;;;5077029;28;19928;-61
2023/07/26 12:16:00;;;;;;;;;;;20.30;56.00;;;;;;5079785;28;19928;-60
2023/07/26 12:18:28;;;;;;;;;;;20.30;55.90;;;;;;5075694;28;20021;-60
2023/07/26 12:21:00;;;;;;;;;;;20.30;56.20;;;;;;5078536;28;19939;-60
2023/07/26 12:23:51;;;;;;;;;;;20.30;55.50;;;;;;5082301;28;19986;-60
2023/07/26 12:26:20;;;;;;;;;;;20.30;56.10;;;;;;5074339;28;20428;-60
2023/07/26 12:28:48;;;;;;;;;;;20.30;56.30;;;;;;5078067;28;20265;-63
2023/07/26 12:31:20;;;;;;;;;;;20.30;56.30;;;;;;5077434;28;20104;-59
2023/07/26 12:34:01;;;;;;;;;;;20.30;55.90;;;;;;5079206;28;19932;-60
2023/07/26 12:36:30;;;;;;;;;;;20.30;56.30;;;;;;5081847;28;19978;-64
2023/07/26 12:38:58;;;;;;;;;;;20.30;56.20;;;;;;5071728;28;19975;-61
2023/07/26 12:41:25;;;;;;;;;;;20.30;56.50;;;;;;5075895;28;20336;-60
2023/07/26 12:43:56;;;;;;;;;;;20.30;56.70;;;;;;5077745;28;19978;-59
2023/07/26 12:46:23;;;;;;;;;;;20.30;56.70;;;;;;5079990;28;19939;-59
2023/07/26 12:48:54;;;;;;;;;;;20.40;56.90;;;;;;5076672;28;19931;-60
2023/07/26 12:51:22;;;;;;;;;;;20.40;56.20;;;;;;5077631;28;20351;-58
2023/07/26 12:53:49;;;;;;;;;;;20.40;56.70;;;;;;5078564;28;19931;-60
2023/07/26 12:56:16;;;;;;;;;;;20.40;56.10;;;;;;5078254;28;20009;-52
2023/07/26 12:58:43;;;;;;;;;;;20.50;56.10;;;;;;5081735;28;19977;-54
2023/07/26 13:01:30;;;;;;;;;;;20.50;56.60;;;;;;5073064;28;20005;-54
2023/07/26 13:03:57;;;;;;;;;;;20.50;56.00;;;;;;5076097;28;19932;-55
2023/07/26 13:06:24;;;;;;;;;;;20.50;55.90;;;;;;5081732;28;19924;-56
2023/07/26 13:08:51;;;;;;;;;;;20.50;56.40;;;;;;5087279;28;20385;-54
2023/07/26 13:11:19;;;;;;;;;;;20.50;56.30;;;;;;5082874;28;19978;-54
2023/07/26 13:13:46;;;;;;;;;;;20.60;56.00;;;;;;5080613;28;19950;-52
2023/07/26 13:16:13;;;;;;;;;;;20.50;56.20;;;;;;5077253;28;20031;-56
2023/07/26 13:18:40;;;;;;;;;;;20.50;56.40;;;;;;5075846;28;19924;-55
2023/07/26 13:21:07;;;;;;;;;;;20.50;56.00;;;;;;5083124;28;20019;-58
2023/07/26 13:23:34;;;;;;;;;;;20.50;56.50;;;;;;5076332;28;21204;-56
2023/07/26 13:26:02;;;;;;;;;;;20.50;56.00;;;;;;5074856;28;19933;-55
2023/07/26 13:28:29;;;;;;;;;;;20.60;56.40;;;;;;5074146;28;20461;-56
2023/07/26 13:30:56;;;;;;;;;;;20.50;56.40;;;;;;5078296;28;20027;-58
2023/07/26 13:33:23;;;;;;;;;;;20.50;56.30;;;;;;5081311;28;19967;-54
2023/07/26 13:35:54;;;;;;;;;;;20.60;56.30;;;;;;5077688;28;19958;-58
2023/07/26 13:38:21;;;;;;;;;;;20.60;56.40;;;;;;5081303;28;20008;-57
2023/07/26 13:40:48;;;;;;;;;;;20.70;56.50;;;;;;5081381;28;19939;-58
2023/07/26 13:43:16;;;;;;;;;;;20.70;56.40;;;;;;5078665;28;20098;-57
2023/07/26 13:45:43;;;;;;;;;;;20.80;56.80;;;;;;5078122;28;19924;-56
2023/07/26 13:48:14;;;;;;;;;;;20.70;56.50;;;;;;5085783;28;19923;-55
2023/07/26 13:50:41;;;;;;;;;;;20.70;56.50;;;;;;5080344;28;20331;-58
2023/07/26 13:53:08;;;;;;;;;;;20.70;57.00;;;;;;5074359;28;19924;-58
2023/07/26 13:55:35;;;;;;;;;;;20.80;57.00;;;;;;5070486;28;20411;-57
2023/07/26 13:58:02;;;;;;;;;;;20.80;57.10;;;;;;5072916;28;19924;-59
2023/07/26 14:00:29;;;;;;;;;;;20.80;57.30;;;;;;5083247;28;21205;-59
2023/07/26 14:02:56;;;;;;;;;;;20.80;56.80;;;;;;5080363;28;20011;-55
2023/07/26 14:05:23;;;;;;;;;;;20.90;63.00;;;;;;5082625;28;19928;-56
2023/07/26 14:08:05;;;;;;;;;;;21.20;66.10;;;;;;5079696;28;19932;-57
2023/07/26 14:10:32;;;;;;;;;;;21.40;67.50;;;;;;5080428;28;20022;-57
2023/07/26 14:12:59;;;;;;;;;;;21.80;68.00;;;;;;5073559;28;20439;-56
2023/07/26 14:15:26;;;;;;;;;;;22.20;68.00;;;;;;5080501;28;19977;-57
2023/07/26 14:17:53;;;;;;;;;;;22.50;67.30;;;;;;5076401;28;20376;-57
2023/07/26 14:20:20;;;;;;;;;;;22.70;67.00;;;;;;5075392;28;19932;-57
2023/07/26 14:22:47;;;;;;;;;;;23.00;66.50;;;;;;5078758;28;19932;-56